WetterOnline ( https://www.wetteronline.ch )

Wetter aktuell Parchim

Aktuelles Wetter: Marnitz (87m)

6-stündlich | Neueste Meldungen
Ortszeit Temperatur Wetter
Fr, 04.12. 19:00 1.4° C bedeckt
Fr, 04.12. 13:00 1.7° C bewölkt
Fr, 04.12. 7:00 -1.2° C bedeckt
Fr, 04.12. 1:00 -0.7° C wolkig
Do, 03.12. 19:00 -0.0° C bedeckt
Do, 03.12. 13:00 -0.1° C bedeckt
Do, 03.12. 7:00 -1.8° C bedeckt
Do, 03.12. 1:00 -2.3° C wolkenlos
Ortszeit Temperatur Wetter
Fr, 04.12. 23:30 1.1° C bedeckt
Fr, 04.12. 23:20 1.1° C bedeckt
Fr, 04.12. 23:10 1.0° C bedeckt
Fr, 04.12. 23:00 0.6° C bedeckt
Fr, 04.12. 22:50 0.6° C bedeckt
Fr, 04.12. 22:40 0.7° C bewölkt
Fr, 04.12. 22:30 0.2° C bewölkt
Fr, 04.12. 22:00 0.7° C leicht bewölkt
Ortszeit Relative Feuchte Sichtweite
Fr, 04.12. 19:00 89% 16 km
Fr, 04.12. 13:00 84% 18 km
Fr, 04.12. 7:00 80% 15 km
Fr, 04.12. 1:00 81% 21 km
Do, 03.12. 19:00 78% 15 km
Do, 03.12. 13:00 81% 12 km
Do, 03.12. 7:00 89% 7 km
Do, 03.12. 1:00 93% 4.8 km
Ortszeit Relative Feuchte Sichtweite
Fr, 04.12. 23:30 90% 12 km
Fr, 04.12. 23:20 90% -
Fr, 04.12. 23:10 90% -
Fr, 04.12. 23:00 91% 10 km
Fr, 04.12. 22:50 91% -
Fr, 04.12. 22:40 91% -
Fr, 04.12. 22:30 93% 9 km
Fr, 04.12. 22:00 91% 11 km
Ortszeit Niederschlagsmenge Niederschlagsart
Fr, 04.12. 19:00 0.1 l/m2 in 12 Std. -
Fr, 04.12. 13:00 0.1 l/m2 in 6 Std. Regen
Fr, 04.12. 7:00 0.0 l/m2 in 12 Std. -
Fr, 04.12. 1:00 0.0 l/m2 in 6 Std. -
Do, 03.12. 19:00 0.0 l/m2 in 12 Std. -
Do, 03.12. 13:00 0.0 l/m2 in 6 Std. -
Do, 03.12. 7:00 0.0 l/m2 in 12 Std. -
Do, 03.12. 1:00 0.0 l/m2 in 6 Std. -
Ortszeit Niederschlagsmenge Niederschlagsart
Fr, 04.12. 23:30 0.0 l/m2 in 1 Std. -
Fr, 04.12. 23:20 keine Meldung -
Fr, 04.12. 23:10 keine Meldung -
Fr, 04.12. 23:00 0.0 l/m2 in 1 Std. -
Fr, 04.12. 22:50 keine Meldung -
Fr, 04.12. 22:40 keine Meldung -
Fr, 04.12. 22:30 0.0 l/m2 in 1 Std. -
Fr, 04.12. 22:00 0.0 l/m2 in 1 Std. -
Ortszeit Stärke Spitze Richtung
km/h Bft. km/h Grad Sektor
Fr, 04.12. 19:00 14 3 32 150° SO
Fr, 04.12. 13:00 11 2 46 160° S
Fr, 04.12. 7:00 18 3 40 160° S
Fr, 04.12. 1:00 14 3 40 170° S
Do, 03.12. 19:00 17 3 41 190° S
Do, 03.12. 13:00 13 3 30 170° S
Do, 03.12. 7:00 13 3 30 170° S
Do, 03.12. 1:00 11 2 22 170° S
Ortszeit Stärke Spitze Richtung
km/h Bft. km/h Grad Sektor
Fr, 04.12. 23:30 11 2 18 150° SO
Fr, 04.12. 23:20 11 2 - 150° SO
Fr, 04.12. 23:10 11 2 - 150° SO
Fr, 04.12. 23:00 11 2 20 150° SO
Fr, 04.12. 22:50 11 2 - 150° SO
Fr, 04.12. 22:40 13 3 - 150° SO
Fr, 04.12. 22:30 13 3 17 140° SO
Fr, 04.12. 22:00 15 3 24 150° SO
Ortszeit Untergrenze Bedeckung Gattung
total tief tief mittel hoch
Fr, 04.12. 19:00 6300 m 8/8 8/8 - - -
Fr, 04.12. 13:00 1500 m 8/8 7/8 - - -
Fr, 04.12. 7:00 3600 m 8/8 8/8 - - -
Fr, 04.12. 1:00 8100 m 8/8 0/8 - - -
Do, 03.12. 19:00 1410 m 8/8 8/8 - - -
Do, 03.12. 13:00 1140 m 8/8 8/8 - - -
Do, 03.12. 7:00 750 m 8/8 8/8 - - -
Do, 03.12. 1:00 - 0/8 0/8 - - -
Ortszeit Bedeckungsgrad in Achtel und Wolkenuntergrenze
Fr, 04.12. 23:30 7(3600m) 8(4500m)
Fr, 04.12. 23:20 7(3600m) 8(4500m)
Fr, 04.12. 23:10 5(3600m) 8(4500m)
Fr, 04.12. 23:00 3(3600m) 8(4800m)
Fr, 04.12. 22:50 3(3600m) 8(4800m)
Fr, 04.12. 22:40 4(3300m) 7(5100m)
Fr, 04.12. 22:30 3(5100m) 6(6900m) 7(7800m)
Fr, 04.12. 22:00 5(7500m) 6(8400m)
Ortszeit Luftdruck NN (hPa) Tendenz (hPa in 3 Std.)
Fr, 04.12. 19:00 996 + 1,6
Fr, 04.12. 13:00 993 0,0
Fr, 04.12. 7:00 994 - 1,5
Fr, 04.12. 1:00 997 - 1,3
Do, 03.12. 19:00 1000 - 1,9
Do, 03.12. 13:00 1004 - 2,6
Do, 03.12. 7:00 1008 - 1,8
Do, 03.12. 1:00 1013 - 1,9
Ortszeit Luftdruck NN (hPa) Tendenz (hPa in 3 Std.)
Fr, 04.12. 23:30 996 + 0,3
Fr, 04.12. 23:20 996 keine Meldung
Fr, 04.12. 23:10 996 keine Meldung
Fr, 04.12. 23:00 996 + 0,7
Fr, 04.12. 22:50 996 keine Meldung
Fr, 04.12. 22:40 996 keine Meldung
Fr, 04.12. 22:30 996 + 0,3
Fr, 04.12. 22:00 996 + 0,2
Ortszeit Schneehöhe (cm)
Fr, 04.12. 19:00 0
Fr, 04.12. 13:00 0
Fr, 04.12. 7:00 0
Fr, 04.12. 1:00 0
Do, 03.12. 19:00 0
Do, 03.12. 13:00 0
Do, 03.12. 7:00 0
Do, 03.12. 1:00 0
Ortszeit Schneehöhe (cm)
Fr, 04.12. 23:30 0
Fr, 04.12. 23:20 0
Fr, 04.12. 23:10 0
Fr, 04.12. 23:00 0
Fr, 04.12. 22:50 0
Fr, 04.12. 22:40 0
Fr, 04.12. 22:30 0
Fr, 04.12. 22:00 0
Link zu dieser Seite / Seite empfehlen

Das Wetter in ...